sensor_id;sensor_type;location;lat;lon;timestamp;P1;durP1;ratioP1;P2;durP2;ratioP2
75061;SDS011;63641;46.526;24.612;2023-08-21T00:01:47;8.40;;;7.68;;
75061;SDS011;63641;46.526;24.612;2023-08-21T00:04:14;7.55;;;6.85;;
75061;SDS011;63641;46.526;24.612;2023-08-21T00:06:41;8.10;;;7.32;;
75061;SDS011;63641;46.526;24.612;2023-08-21T00:09:07;8.38;;;7.53;;
75061;SDS011;63641;46.526;24.612;2023-08-21T00:11:34;7.95;;;7.10;;
75061;SDS011;63641;46.526;24.612;2023-08-21T00:14:01;7.50;;;6.68;;
75061;SDS011;63641;46.526;24.612;2023-08-21T00:16:28;7.45;;;6.70;;
75061;SDS011;63641;46.526;24.612;2023-08-21T00:18:55;8.35;;;7.47;;
75061;SDS011;63641;46.526;24.612;2023-08-21T00:21:22;7.53;;;6.82;;
75061;SDS011;63641;46.526;24.612;2023-08-21T00:23:49;8.55;;;7.25;;
75061;SDS011;63641;46.526;24.612;2023-08-21T00:26:16;8.02;;;7.05;;
75061;SDS011;63641;46.526;24.612;2023-08-21T00:28:43;8.80;;;7.90;;
75061;SDS011;63641;46.526;24.612;2023-08-21T00:31:09;7.85;;;7.10;;
75061;SDS011;63641;46.526;24.612;2023-08-21T00:33:36;7.53;;;6.68;;
75061;SDS011;63641;46.526;24.612;2023-08-21T00:36:03;8.52;;;7.72;;
75061;SDS011;63641;46.526;24.612;2023-08-21T00:38:30;8.13;;;7.40;;
75061;SDS011;63641;46.526;24.612;2023-08-21T00:40:57;7.68;;;7.03;;
75061;SDS011;63641;46.526;24.612;2023-08-21T00:43:24;7.78;;;7.07;;
75061;SDS011;63641;46.526;24.612;2023-08-21T00:45:51;8.10;;;7.18;;
75061;SDS011;63641;46.526;24.612;2023-08-21T00:48:19;7.97;;;7.18;;
75061;SDS011;63641;46.526;24.612;2023-08-21T00:50:46;7.90;;;7.20;;
75061;SDS011;63641;46.526;24.612;2023-08-21T00:53:13;8.85;;;7.75;;
75061;SDS011;63641;46.526;24.612;2023-08-21T00:55:40;8.77;;;8.07;;
75061;SDS011;63641;46.526;24.612;2023-08-21T00:58:08;9.70;;;8.40;;
75061;SDS011;63641;46.526;24.612;2023-08-21T01:00:38;7.72;;;7.03;;
75061;SDS011;63641;46.526;24.612;2023-08-21T01:03:05;7.72;;;7.07;;
75061;SDS011;63641;46.526;24.612;2023-08-21T01:05:31;7.70;;;7.03;;
75061;SDS011;63641;46.526;24.612;2023-08-21T01:13:59;7.82;;;7.13;;
75061;SDS011;63641;46.526;24.612;2023-08-21T01:16:37;8.25;;;7.15;;
75061;SDS011;63641;46.526;24.612;2023-08-21T01:19:09;7.03;;;6.43;;
75061;SDS011;63641;46.526;24.612;2023-08-21T01:21:45;8.63;;;7.70;;
75061;SDS011;63641;46.526;24.612;2023-08-21T01:24:12;8.15;;;7.40;;
75061;SDS011;63641;46.526;24.612;2023-08-21T01:26:39;7.32;;;6.65;;
75061;SDS011;63641;46.526;24.612;2023-08-21T01:29:06;7.68;;;6.78;;
75061;SDS011;63641;46.526;24.612;2023-08-21T01:31:33;7.65;;;6.95;;
75061;SDS011;63641;46.526;24.612;2023-08-21T01:34:04;8.77;;;7.80;;
75061;SDS011;63641;46.526;24.612;2023-08-21T01:36:35;8.70;;;7.75;;
75061;SDS011;63641;46.526;24.612;2023-08-21T01:39:02;8.23;;;7.47;;
75061;SDS011;63641;46.526;24.612;2023-08-21T01:41:29;8.82;;;7.88;;
75061;SDS011;63641;46.526;24.612;2023-08-21T01:43:56;7.72;;;7.13;;
75061;SDS011;63641;46.526;24.612;2023-08-21T01:46:23;7.78;;;7.07;;
75061;SDS011;63641;46.526;24.612;2023-08-21T01:48:50;7.30;;;6.65;;
75061;SDS011;63641;46.526;24.612;2023-08-21T01:51:16;8.23;;;7.50;;
75061;SDS011;63641;46.526;24.612;2023-08-21T01:53:43;8.30;;;7.60;;
75061;SDS011;63641;46.526;24.612;2023-08-21T01:56:10;9.25;;;7.47;;
75061;SDS011;63641;46.526;24.612;2023-08-21T01:58:37;7.72;;;7.03;;
75061;SDS011;63641;46.526;24.612;2023-08-21T02:01:03;8.75;;;7.63;;
75061;SDS011;63641;46.526;24.612;2023-08-21T02:03:31;9.00;;;7.63;;
75061;SDS011;63641;46.526;24.612;2023-08-21T02:05:58;8.70;;;7.68;;
75061;SDS011;63641;46.526;24.612;2023-08-21T02:08:32;9.55;;;7.28;;
75061;SDS011;63641;46.526;24.612;2023-08-21T02:13:26;9.27;;;6.82;;
75061;SDS011;63641;46.526;24.612;2023-08-21T02:15:52;7.90;;;7.30;;
75061;SDS011;63641;46.526;24.612;2023-08-21T02:18:19;8.65;;;7.85;;
75061;SDS011;63641;46.526;24.612;2023-08-21T02:20:49;8.10;;;7.35;;
75061;SDS011;63641;46.526;24.612;2023-08-21T02:23:16;8.48;;;7.40;;
75061;SDS011;63641;46.526;24.612;2023-08-21T02:25:43;7.88;;;7.18;;
75061;SDS011;63641;46.526;24.612;2023-08-21T02:28:09;8.43;;;7.50;;
75061;SDS011;63641;46.526;24.612;2023-08-21T02:30:39;7.95;;;7.22;;
75061;SDS011;63641;46.526;24.612;2023-08-21T02:33:06;9.82;;;8.32;;
75061;SDS011;63641;46.526;24.612;2023-08-21T02:35:33;8.52;;;7.78;;
75061;SDS011;63641;46.526;24.612;2023-08-21T02:38:00;8.60;;;7.80;;
75061;SDS011;63641;46.526;24.612;2023-08-21T02:40:27;8.02;;;7.20;;
75061;SDS011;63641;46.526;24.612;2023-08-21T02:42:53;8.10;;;7.35;;
75061;SDS011;63641;46.526;24.612;2023-08-21T02:45:20;8.40;;;7.55;;
75061;SDS011;63641;46.526;24.612;2023-08-21T02:47:47;8.25;;;7.45;;
75061;SDS011;63641;46.526;24.612;2023-08-21T02:50:14;8.25;;;7.45;;
75061;SDS011;63641;46.526;24.612;2023-08-21T02:52:41;8.30;;;7.60;;
75061;SDS011;63641;46.526;24.612;2023-08-21T02:55:08;9.10;;;8.30;;
75061;SDS011;63641;46.526;24.612;2023-08-21T02:57:35;8.07;;;7.28;;
75061;SDS011;63641;46.526;24.612;2023-08-21T03:00:01;9.57;;;8.02;;
75061;SDS011;63641;46.526;24.612;2023-08-21T03:02:29;7.75;;;6.95;;
75061;SDS011;63641;46.526;24.612;2023-08-21T03:04:56;9.15;;;8.25;;
75061;SDS011;63641;46.526;24.612;2023-08-21T03:07:22;8.55;;;7.85;;
75061;SDS011;63641;46.526;24.612;2023-08-21T03:09:50;8.30;;;7.50;;
75061;SDS011;63641;46.526;24.612;2023-08-21T03:12:16;8.95;;;8.10;;
75061;SDS011;63641;46.526;24.612;2023-08-21T03:14:45;9.73;;;8.60;;
75061;SDS011;63641;46.526;24.612;2023-08-21T03:17:12;8.43;;;7.72;;
75061;SDS011;63641;46.526;24.612;2023-08-21T03:19:39;8.93;;;8.13;;
75061;SDS011;63641;46.526;24.612;2023-08-21T03:22:06;8.48;;;7.68;;
75061;SDS011;63641;46.526;24.612;2023-08-21T03:24:33;8.80;;;8.07;;
75061;SDS011;63641;46.526;24.612;2023-08-21T03:26:59;11.18;;;7.75;;
75061;SDS011;63641;46.526;24.612;2023-08-21T03:29:26;8.98;;;8.18;;
75061;SDS011;63641;46.526;24.612;2023-08-21T03:31:53;8.95;;;8.02;;
75061;SDS011;63641;46.526;24.612;2023-08-21T03:34:21;10.23;;;8.07;;
75061;SDS011;63641;46.526;24.612;2023-08-21T03:36:47;8.52;;;7.53;;
75061;SDS011;63641;46.526;24.612;2023-08-21T03:39:14;8.65;;;7.85;;
75061;SDS011;63641;46.526;24.612;2023-08-21T03:41:41;9.13;;;8.32;;
75061;SDS011;63641;46.526;24.612;2023-08-21T03:44:08;9.10;;;8.20;;
75061;SDS011;63641;46.526;24.612;2023-08-21T03:46:34;9.32;;;8.52;;
75061;SDS011;63641;46.526;24.612;2023-08-21T03:49:01;9.32;;;8.43;;
75061;SDS011;63641;46.526;24.612;2023-08-21T03:51:28;8.80;;;8.00;;
75061;SDS011;63641;46.526;24.612;2023-08-21T03:53:55;9.75;;;8.90;;
75061;SDS011;63641;46.526;24.612;2023-08-21T03:56:21;9.32;;;8.43;;
75061;SDS011;63641;46.526;24.612;2023-08-21T03:58:49;10.35;;;9.32;;
75061;SDS011;63641;46.526;24.612;2023-08-21T04:01:16;9.25;;;8.40;;
75061;SDS011;63641;46.526;24.612;2023-08-21T04:03:43;9.25;;;8.40;;
75061;SDS011;63641;46.526;24.612;2023-08-21T04:06:09;8.50;;;7.70;;
75061;SDS011;63641;46.526;24.612;2023-08-21T04:08:36;9.30;;;8.50;;
75061;SDS011;63641;46.526;24.612;2023-08-21T04:11:04;8.55;;;7.78;;
75061;SDS011;63641;46.526;24.612;2023-08-21T04:13:32;9.43;;;8.52;;
75061;SDS011;63641;46.526;24.612;2023-08-21T04:15:59;9.90;;;8.88;;
75061;SDS011;63641;46.526;24.612;2023-08-21T04:18:26;8.85;;;8.15;;
75061;SDS011;63641;46.526;24.612;2023-08-21T04:21:06;9.85;;;8.95;;
75061;SDS011;63641;46.526;24.612;2023-08-21T04:23:34;9.45;;;8.63;;
75061;SDS011;63641;46.526;24.612;2023-08-21T04:26:03;9.60;;;8.73;;
75061;SDS011;63641;46.526;24.612;2023-08-21T04:28:31;9.95;;;8.95;;
75061;SDS011;63641;46.526;24.612;2023-08-21T04:30:59;10.45;;;9.38;;
75061;SDS011;63641;46.526;24.612;2023-08-21T04:33:27;11.00;;;9.82;;
75061;SDS011;63641;46.526;24.612;2023-08-21T04:35:55;9.57;;;8.60;;
75061;SDS011;63641;46.526;24.612;2023-08-21T04:38:22;9.82;;;8.93;;
75061;SDS011;63641;46.526;24.612;2023-08-21T04:40:48;10.05;;;9.00;;
75061;SDS011;63641;46.526;24.612;2023-08-21T04:43:15;9.82;;;8.93;;
75061;SDS011;63641;46.526;24.612;2023-08-21T04:45:47;10.90;;;9.90;;
75061;SDS011;63641;46.526;24.612;2023-08-21T04:48:15;9.52;;;8.60;;
75061;SDS011;63641;46.526;24.612;2023-08-21T04:50:42;10.27;;;9.18;;
75061;SDS011;63641;46.526;24.612;2023-08-21T04:53:09;10.63;;;9.70;;
75061;SDS011;63641;46.526;24.612;2023-08-21T04:55:36;10.65;;;9.60;;
75061;SDS011;63641;46.526;24.612;2023-08-21T04:58:03;10.13;;;9.13;;
75061;SDS011;63641;46.526;24.612;2023-08-21T05:00:30;9.68;;;8.80;;
75061;SDS011;63641;46.526;24.612;2023-08-21T05:02:57;10.45;;;9.45;;
75061;SDS011;63641;46.526;24.612;2023-08-21T05:05:24;10.57;;;9.55;;
75061;SDS011;63641;46.526;24.612;2023-08-21T05:07:54;11.10;;;10.02;;
75061;SDS011;63641;46.526;24.612;2023-08-21T05:10:21;10.20;;;9.30;;
75061;SDS011;63641;46.526;24.612;2023-08-21T05:12:48;10.15;;;9.20;;
75061;SDS011;63641;46.526;24.612;2023-08-21T05:15:15;10.05;;;9.15;;
75061;SDS011;63641;46.526;24.612;2023-08-21T05:17:43;10.30;;;9.32;;
75061;SDS011;63641;46.526;24.612;2023-08-21T05:20:09;10.02;;;9.02;;
75061;SDS011;63641;46.526;24.612;2023-08-21T05:22:40;10.38;;;9.38;;
75061;SDS011;63641;46.526;24.612;2023-08-21T05:25:07;11.32;;;10.38;;
75061;SDS011;63641;46.526;24.612;2023-08-21T05:27:34;11.98;;;10.77;;
75061;SDS011;63641;46.526;24.612;2023-08-21T05:30:01;11.63;;;10.52;;
75061;SDS011;63641;46.526;24.612;2023-08-21T05:32:28;10.82;;;9.82;;
75061;SDS011;63641;46.526;24.612;2023-08-21T05:34:55;11.13;;;10.07;;
75061;SDS011;63641;46.526;24.612;2023-08-21T05:37:21;10.68;;;9.60;;
75061;SDS011;63641;46.526;24.612;2023-08-21T05:39:48;11.23;;;9.98;;
75061;SDS011;63641;46.526;24.612;2023-08-21T05:42:15;11.35;;;10.25;;
75061;SDS011;63641;46.526;24.612;2023-08-21T05:44:42;10.73;;;9.65;;
75061;SDS011;63641;46.526;24.612;2023-08-21T05:47:08;10.20;;;9.00;;
75061;SDS011;63641;46.526;24.612;2023-08-21T05:49:35;9.73;;;8.90;;
75061;SDS011;63641;46.526;24.612;2023-08-21T05:52:02;10.50;;;9.10;;
75061;SDS011;63641;46.526;24.612;2023-08-21T05:54:29;9.98;;;9.07;;
75061;SDS011;63641;46.526;24.612;2023-08-21T05:56:57;9.20;;;8.30;;
75061;SDS011;63641;46.526;24.612;2023-08-21T05:59:29;12.52;;;9.73;;
75061;SDS011;63641;46.526;24.612;2023-08-21T06:01:57;10.10;;;9.10;;
75061;SDS011;63641;46.526;24.612;2023-08-21T06:04:24;9.60;;;8.70;;
75061;SDS011;63641;46.526;24.612;2023-08-21T06:06:51;9.25;;;8.40;;
75061;SDS011;63641;46.526;24.612;2023-08-21T06:09:19;12.15;;;8.70;;
75061;SDS011;63641;46.526;24.612;2023-08-21T06:11:46;10.32;;;8.32;;
75061;SDS011;63641;46.526;24.612;2023-08-21T06:14:13;9.18;;;8.38;;
75061;SDS011;63641;46.526;24.612;2023-08-21T06:16:40;8.10;;;7.40;;
75061;SDS011;63641;46.526;24.612;2023-08-21T06:19:07;9.23;;;7.60;;
75061;SDS011;63641;46.526;24.612;2023-08-21T06:21:34;9.07;;;7.97;;
75061;SDS011;63641;46.526;24.612;2023-08-21T06:24:01;8.93;;;8.07;;
75061;SDS011;63641;46.526;24.612;2023-08-21T06:26:27;8.40;;;7.70;;
75061;SDS011;63641;46.526;24.612;2023-08-21T06:28:54;9.52;;;8.05;;
75061;SDS011;63641;46.526;24.612;2023-08-21T06:31:20;10.00;;;7.93;;
75061;SDS011;63641;46.526;24.612;2023-08-21T06:33:47;8.82;;;8.02;;
75061;SDS011;63641;46.526;24.612;2023-08-21T06:36:14;9.93;;;9.00;;
75061;SDS011;63641;46.526;24.612;2023-08-21T06:38:41;8.93;;;8.13;;
75061;SDS011;63641;46.526;24.612;2023-08-21T06:41:08;9.60;;;7.93;;
75061;SDS011;63641;46.526;24.612;2023-08-21T06:43:38;8.93;;;8.07;;
75061;SDS011;63641;46.526;24.612;2023-08-21T06:46:09;8.38;;;7.60;;
75061;SDS011;63641;46.526;24.612;2023-08-21T06:48:37;11.50;;;8.35;;
75061;SDS011;63641;46.526;24.612;2023-08-21T06:51:07;10.30;;;7.70;;
75061;SDS011;63641;46.526;24.612;2023-08-21T06:53:34;9.15;;;7.50;;
75061;SDS011;63641;46.526;24.612;2023-08-21T06:56:00;8.38;;;7.32;;
75061;SDS011;63641;46.526;24.612;2023-08-21T06:58:27;8.02;;;7.30;;
75061;SDS011;63641;46.526;24.612;2023-08-21T07:00:54;7.65;;;6.95;;
75061;SDS011;63641;46.526;24.612;2023-08-21T07:03:22;8.07;;;7.28;;
75061;SDS011;63641;46.526;24.612;2023-08-21T07:05:53;8.57;;;6.95;;
75061;SDS011;63641;46.526;24.612;2023-08-21T07:08:24;7.32;;;6.72;;
75061;SDS011;63641;46.526;24.612;2023-08-21T07:10:52;7.68;;;6.95;;
75061;SDS011;63641;46.526;24.612;2023-08-21T07:13:19;8.70;;;6.50;;
75061;SDS011;63641;46.526;24.612;2023-08-21T07:15:46;10.45;;;6.60;;
75061;SDS011;63641;46.526;24.612;2023-08-21T07:18:13;7.53;;;6.82;;
75061;SDS011;63641;46.526;24.612;2023-08-21T07:20:40;7.25;;;6.20;;
75061;SDS011;63641;46.526;24.612;2023-08-21T07:23:07;6.50;;;5.80;;
75061;SDS011;63641;46.526;24.612;2023-08-21T07:25:34;6.85;;;5.90;;
75061;SDS011;63641;46.526;24.612;2023-08-21T07:28:00;9.10;;;5.88;;
75061;SDS011;63641;46.526;24.612;2023-08-21T07:30:27;6.45;;;5.88;;
75061;SDS011;63641;46.526;24.612;2023-08-21T07:32:54;6.88;;;6.28;;
75061;SDS011;63641;46.526;24.612;2023-08-21T07:35:21;9.35;;;5.85;;
75061;SDS011;63641;46.526;24.612;2023-08-21T07:37:48;6.63;;;5.70;;
75061;SDS011;63641;46.526;24.612;2023-08-21T07:40:15;6.38;;;5.78;;
75061;SDS011;63641;46.526;24.612;2023-08-21T07:42:42;6.20;;;5.70;;
75061;SDS011;63641;46.526;24.612;2023-08-21T07:45:09;6.30;;;5.70;;
75061;SDS011;63641;46.526;24.612;2023-08-21T07:47:36;6.90;;;6.20;;
75061;SDS011;63641;46.526;24.612;2023-08-21T07:50:04;6.45;;;5.82;;
75061;SDS011;63641;46.526;24.612;2023-08-21T07:52:34;7.30;;;5.80;;
75061;SDS011;63641;46.526;24.612;2023-08-21T07:55:02;6.10;;;5.53;;
75061;SDS011;63641;46.526;24.612;2023-08-21T07:57:29;6.30;;;5.43;;
75061;SDS011;63641;46.526;24.612;2023-08-21T07:59:57;5.55;;;5.15;;
75061;SDS011;63641;46.526;24.612;2023-08-21T08:02:23;5.97;;;5.47;;
75061;SDS011;63641;46.526;24.612;2023-08-21T08:04:51;7.97;;;5.55;;
75061;SDS011;63641;46.526;24.612;2023-08-21T08:07:18;5.68;;;5.18;;
75061;SDS011;63641;46.526;24.612;2023-08-21T08:09:45;7.05;;;5.45;;
75061;SDS011;63641;46.526;24.612;2023-08-21T08:12:13;6.53;;;5.72;;
75061;SDS011;63641;46.526;24.612;2023-08-21T08:14:40;5.78;;;5.25;;
75061;SDS011;63641;46.526;24.612;2023-08-21T08:17:07;6.57;;;5.47;;
75061;SDS011;63641;46.526;24.612;2023-08-21T08:19:33;6.75;;;5.15;;
75061;SDS011;63641;46.526;24.612;2023-08-21T08:22:00;5.82;;;5.32;;
75061;SDS011;63641;46.526;24.612;2023-08-21T08:24:28;14.10;;;5.50;;
75061;SDS011;63641;46.526;24.612;2023-08-21T08:26:54;7.75;;;5.70;;
75061;SDS011;63641;46.526;24.612;2023-08-21T08:29:22;8.38;;;5.18;;
75061;SDS011;63641;46.526;24.612;2023-08-21T08:31:48;5.90;;;5.40;;
75061;SDS011;63641;46.526;24.612;2023-08-21T08:34:15;5.38;;;4.97;;
75061;SDS011;63641;46.526;24.612;2023-08-21T08:36:46;6.65;;;5.65;;
75061;SDS011;63641;46.526;24.612;2023-08-21T08:39:13;5.78;;;4.82;;
75061;SDS011;63641;46.526;24.612;2023-08-21T08:42:02;6.03;;;5.13;;
75061;SDS011;63641;46.526;24.612;2023-08-21T08:44:30;5.95;;;5.03;;
75061;SDS011;63641;46.526;24.612;2023-08-21T08:46:56;6.18;;;5.57;;
75061;SDS011;63641;46.526;24.612;2023-08-21T08:49:24;6.75;;;5.15;;
75061;SDS011;63641;46.526;24.612;2023-08-21T08:51:51;6.50;;;5.18;;
75061;SDS011;63641;46.526;24.612;2023-08-21T08:54:20;6.50;;;5.68;;
75061;SDS011;63641;46.526;24.612;2023-08-21T08:56:48;5.68;;;4.90;;
75061;SDS011;63641;46.526;24.612;2023-08-21T08:59:15;6.38;;;5.78;;
75061;SDS011;63641;46.526;24.612;2023-08-21T09:01:42;5.38;;;4.88;;
75061;SDS011;63641;46.526;24.612;2023-08-21T09:04:09;7.88;;;5.45;;
75061;SDS011;63641;46.526;24.612;2023-08-21T09:06:37;6.82;;;5.25;;
75061;SDS011;63641;46.526;24.612;2023-08-21T09:09:05;6.63;;;5.18;;
75061;SDS011;63641;46.526;24.612;2023-08-21T09:11:34;6.18;;;5.57;;
75061;SDS011;63641;46.526;24.612;2023-08-21T09:14:01;6.20;;;5.70;;
75061;SDS011;63641;46.526;24.612;2023-08-21T09:16:27;8.07;;;5.35;;
75061;SDS011;63641;46.526;24.612;2023-08-21T09:18:55;5.90;;;5.30;;
75061;SDS011;63641;46.526;24.612;2023-08-21T09:21:24;6.20;;;5.57;;
75061;SDS011;63641;46.526;24.612;2023-08-21T09:23:59;7.57;;;6.30;;
75061;SDS011;63641;46.526;24.612;2023-08-21T09:26:29;6.53;;;5.93;;
75061;SDS011;63641;46.526;24.612;2023-08-21T09:28:58;7.90;;;6.57;;
75061;SDS011;63641;46.526;24.612;2023-08-21T09:31:30;6.93;;;6.30;;
75061;SDS011;63641;46.526;24.612;2023-08-21T09:33:59;6.07;;;5.38;;
75061;SDS011;63641;46.526;24.612;2023-08-21T09:36:34;6.63;;;5.80;;
75061;SDS011;63641;46.526;24.612;2023-08-21T09:39:02;8.00;;;5.85;;
75061;SDS011;63641;46.526;24.612;2023-08-21T09:41:30;6.00;;;5.40;;
75061;SDS011;63641;46.526;24.612;2023-08-21T09:43:59;6.43;;;5.65;;
75061;SDS011;63641;46.526;24.612;2023-08-21T09:46:27;7.55;;;5.78;;
75061;SDS011;63641;46.526;24.612;2023-08-21T09:48:55;5.93;;;5.43;;
75061;SDS011;63641;46.526;24.612;2023-08-21T09:51:22;7.13;;;5.50;;
75061;SDS011;63641;46.526;24.612;2023-08-21T09:53:49;7.50;;;5.20;;
75061;SDS011;63641;46.526;24.612;2023-08-21T09:56:17;8.30;;;5.18;;
75061;SDS011;63641;46.526;24.612;2023-08-21T09:58:47;5.90;;;5.10;;
75061;SDS011;63641;46.526;24.612;2023-08-21T10:01:14;6.03;;;5.07;;
75061;SDS011;63641;46.526;24.612;2023-08-21T10:03:43;6.72;;;5.22;;
75061;SDS011;63641;46.526;24.612;2023-08-21T10:06:17;5.18;;;4.68;;
75061;SDS011;63641;46.526;24.612;2023-08-21T10:08:48;5.10;;;4.70;;
75061;SDS011;63641;46.526;24.612;2023-08-21T10:11:20;4.75;;;4.35;;
75061;SDS011;63641;46.526;24.612;2023-08-21T10:13:48;6.13;;;5.15;;
75061;SDS011;63641;46.526;24.612;2023-08-21T10:16:19;6.63;;;5.32;;
75061;SDS011;63641;46.526;24.612;2023-08-21T10:18:48;4.75;;;4.30;;
75061;SDS011;63641;46.526;24.612;2023-08-21T10:23:51;6.20;;;5.00;;
75061;SDS011;63641;46.526;24.612;2023-08-21T10:26:22;5.05;;;4.53;;
75061;SDS011;63641;46.526;24.612;2023-08-21T10:28:53;7.55;;;4.85;;
75061;SDS011;63641;46.526;24.612;2023-08-21T10:31:37;5.63;;;5.13;;
75061;SDS011;63641;46.526;24.612;2023-08-21T10:34:10;8.70;;;4.95;;
75061;SDS011;63641;46.526;24.612;2023-08-21T10:37:02;5.45;;;4.95;;
75061;SDS011;63641;46.526;24.612;2023-08-21T10:39:40;6.70;;;5.03;;
75061;SDS011;63641;46.526;24.612;2023-08-21T10:42:23;5.90;;;5.40;;
75061;SDS011;63641;46.526;24.612;2023-08-21T10:45:11;5.45;;;4.95;;
75061;SDS011;63641;46.526;24.612;2023-08-21T10:47:38;7.63;;;5.63;;
75061;SDS011;63641;46.526;24.612;2023-08-21T10:50:06;5.82;;;5.32;;
75061;SDS011;63641;46.526;24.612;2023-08-21T10:52:41;6.55;;;5.90;;
75061;SDS011;63641;46.526;24.612;2023-08-21T10:55:12;6.93;;;5.80;;
75061;SDS011;63641;46.526;24.612;2023-08-21T10:57:39;7.07;;;5.32;;
75061;SDS011;63641;46.526;24.612;2023-08-21T11:00:13;8.00;;;5.35;;
75061;SDS011;63641;46.526;24.612;2023-08-21T11:02:42;6.78;;;5.28;;
75061;SDS011;63641;46.526;24.612;2023-08-21T11:05:10;6.97;;;5.68;;
75061;SDS011;63641;46.526;24.612;2023-08-21T11:10:07;6.65;;;5.88;;
75061;SDS011;63641;46.526;24.612;2023-08-21T11:12:38;8.82;;;5.70;;
75061;SDS011;63641;46.526;24.612;2023-08-21T11:15:05;7.10;;;5.72;;
75061;SDS011;63641;46.526;24.612;2023-08-21T11:17:32;9.05;;;5.57;;
75061;SDS011;63641;46.526;24.612;2023-08-21T11:20:00;6.03;;;5.43;;
75061;SDS011;63641;46.526;24.612;2023-08-21T11:22:31;6.35;;;5.85;;
75061;SDS011;63641;46.526;24.612;2023-08-21T11:24:58;8.07;;;4.97;;
75061;SDS011;63641;46.526;24.612;2023-08-21T11:27:25;5.82;;;5.28;;
75061;SDS011;63641;46.526;24.612;2023-08-21T11:29:52;9.23;;;5.22;;
75061;SDS011;63641;46.526;24.612;2023-08-21T11:32:20;5.60;;;4.93;;
75061;SDS011;63641;46.526;24.612;2023-08-21T11:34:49;6.15;;;4.95;;
75061;SDS011;63641;46.526;24.612;2023-08-21T11:37:18;6.25;;;5.65;;
75061;SDS011;63641;46.526;24.612;2023-08-21T11:39:50;6.45;;;4.95;;
75061;SDS011;63641;46.526;24.612;2023-08-21T11:42:19;5.82;;;4.90;;
75061;SDS011;63641;46.526;24.612;2023-08-21T11:44:52;5.55;;;4.97;;
75061;SDS011;63641;46.526;24.612;2023-08-21T11:47:20;7.03;;;5.07;;
75061;SDS011;63641;46.526;24.612;2023-08-21T11:49:49;6.10;;;5.28;;
75061;SDS011;63641;46.526;24.612;2023-08-21T11:52:20;6.63;;;5.03;;
75061;SDS011;63641;46.526;24.612;2023-08-21T11:54:49;5.75;;;4.78;;
75061;SDS011;63641;46.526;24.612;2023-08-21T11:57:17;7.90;;;5.00;;
75061;SDS011;63641;46.526;24.612;2023-08-21T11:59:51;8.35;;;4.85;;
75061;SDS011;63641;46.526;24.612;2023-08-21T12:02:22;5.85;;;5.30;;
75061;SDS011;63641;46.526;24.612;2023-08-21T12:05:05;5.30;;;4.85;;
75061;SDS011;63641;46.526;24.612;2023-08-21T12:07:33;7.03;;;5.00;;
75061;SDS011;63641;46.526;24.612;2023-08-21T12:10:00;6.25;;;5.05;;
75061;SDS011;63641;46.526;24.612;2023-08-21T12:12:27;5.82;;;5.25;;
75061;SDS011;63641;46.526;24.612;2023-08-21T12:14:54;6.45;;;5.30;;
75061;SDS011;63641;46.526;24.612;2023-08-21T12:17:21;5.30;;;4.80;;
75061;SDS011;63641;46.526;24.612;2023-08-21T12:19:47;5.80;;;4.90;;
75061;SDS011;63641;46.526;24.612;2023-08-21T12:22:14;5.07;;;4.63;;
75061;SDS011;63641;46.526;24.612;2023-08-21T12:24:41;6.45;;;4.93;;
75061;SDS011;63641;46.526;24.612;2023-08-21T12:27:08;8.13;;;5.15;;
75061;SDS011;63641;46.526;24.612;2023-08-21T12:29:34;6.68;;;5.35;;
75061;SDS011;63641;46.526;24.612;2023-08-21T12:32:01;6.07;;;5.20;;
75061;SDS011;63641;46.526;24.612;2023-08-21T12:34:31;6.93;;;4.80;;
75061;SDS011;63641;46.526;24.612;2023-08-21T12:36:58;5.40;;;4.65;;
75061;SDS011;63641;46.526;24.612;2023-08-21T12:39:25;4.78;;;4.20;;
75061;SDS011;63641;46.526;24.612;2023-08-21T12:41:52;5.57;;;4.68;;
75061;SDS011;63641;46.526;24.612;2023-08-21T12:44:19;5.43;;;4.88;;
75061;SDS011;63641;46.526;24.612;2023-08-21T12:46:46;5.35;;;4.75;;
75061;SDS011;63641;46.526;24.612;2023-08-21T12:49:13;5.65;;;4.18;;
75061;SDS011;63641;46.526;24.612;2023-08-21T12:51:39;6.72;;;4.70;;
75061;SDS011;63641;46.526;24.612;2023-08-21T12:54:06;4.70;;;4.30;;
75061;SDS011;63641;46.526;24.612;2023-08-21T12:56:35;4.60;;;4.13;;
75061;SDS011;63641;46.526;24.612;2023-08-21T12:59:02;6.03;;;4.10;;
75061;SDS011;63641;46.526;24.612;2023-08-21T13:01:29;5.88;;;4.38;;
75061;SDS011;63641;46.526;24.612;2023-08-21T13:03:58;4.72;;;4.43;;
75061;SDS011;63641;46.526;24.612;2023-08-21T13:06:24;4.55;;;4.10;;
75061;SDS011;63641;46.526;24.612;2023-08-21T13:08:51;5.22;;;4.07;;
75061;SDS011;63641;46.526;24.612;2023-08-21T13:11:18;6.88;;;4.38;;
75061;SDS011;63641;46.526;24.612;2023-08-21T13:13:45;4.50;;;4.10;;
75061;SDS011;63641;46.526;24.612;2023-08-21T13:16:12;4.60;;;4.20;;
75061;SDS011;63641;46.526;24.612;2023-08-21T13:18:38;5.63;;;4.32;;
75061;SDS011;63641;46.526;24.612;2023-08-21T13:21:05;4.43;;;4.05;;
75061;SDS011;63641;46.526;24.612;2023-08-21T13:23:32;4.63;;;4.32;;
75061;SDS011;63641;46.526;24.612;2023-08-21T13:26:01;7.82;;;4.45;;
75061;SDS011;63641;46.526;24.612;2023-08-21T13:28:28;6.03;;;4.60;;
75061;SDS011;63641;46.526;24.612;2023-08-21T13:30:55;4.97;;;4.47;;
75061;SDS011;63641;46.526;24.612;2023-08-21T13:33:22;4.85;;;4.45;;
75061;SDS011;63641;46.526;24.612;2023-08-21T13:35:48;4.85;;;4.15;;
75061;SDS011;63641;46.526;24.612;2023-08-21T13:38:15;4.95;;;4.47;;
75061;SDS011;63641;46.526;24.612;2023-08-21T13:40:43;4.68;;;4.20;;
75061;SDS011;63641;46.526;24.612;2023-08-21T13:43:09;5.47;;;4.88;;
75061;SDS011;63641;46.526;24.612;2023-08-21T13:45:38;7.60;;;4.30;;
75061;SDS011;63641;46.526;24.612;2023-08-21T13:48:06;4.45;;;4.05;;
75061;SDS011;63641;46.526;24.612;2023-08-21T13:50:33;7.00;;;4.40;;
75061;SDS011;63641;46.526;24.612;2023-08-21T13:53:00;5.32;;;4.40;;
75061;SDS011;63641;46.526;24.612;2023-08-21T13:55:26;4.57;;;4.10;;
75061;SDS011;63641;46.526;24.612;2023-08-21T13:57:53;4.88;;;4.38;;
75061;SDS011;63641;46.526;24.612;2023-08-21T14:00:20;5.35;;;4.45;;
75061;SDS011;63641;46.526;24.612;2023-08-21T14:02:48;4.82;;;4.22;;
75061;SDS011;63641;46.526;24.612;2023-08-21T14:05:16;5.13;;;4.70;;
75061;SDS011;63641;46.526;24.612;2023-08-21T14:07:43;4.47;;;4.07;;
75061;SDS011;63641;46.526;24.612;2023-08-21T14:10:11;4.03;;;3.72;;
75061;SDS011;63641;46.526;24.612;2023-08-21T14:12:40;4.70;;;4.30;;
75061;SDS011;63641;46.526;24.612;2023-08-21T14:15:08;5.85;;;4.30;;
75061;SDS011;63641;46.526;24.612;2023-08-21T14:17:35;4.40;;;4.00;;
75061;SDS011;63641;46.526;24.612;2023-08-21T14:20:02;6.60;;;4.40;;
75061;SDS011;63641;46.526;24.612;2023-08-21T14:22:30;5.95;;;4.50;;
75061;SDS011;63641;46.526;24.612;2023-08-21T14:24:58;4.63;;;4.22;;
75061;SDS011;63641;46.526;24.612;2023-08-21T14:27:24;4.47;;;4.10;;
75061;SDS011;63641;46.526;24.612;2023-08-21T14:29:51;7.95;;;4.57;;
75061;SDS011;63641;46.526;24.612;2023-08-21T14:32:18;5.53;;;4.47;;
75061;SDS011;63641;46.526;24.612;2023-08-21T14:34:45;6.40;;;4.07;;
75061;SDS011;63641;46.526;24.612;2023-08-21T14:37:13;5.50;;;4.50;;
75061;SDS011;63641;46.526;24.612;2023-08-21T14:39:42;4.80;;;4.10;;
75061;SDS011;63641;46.526;24.612;2023-08-21T14:42:12;4.30;;;3.92;;
75061;SDS011;63641;46.526;24.612;2023-08-21T14:44:40;4.85;;;4.38;;
75061;SDS011;63641;46.526;24.612;2023-08-21T14:47:06;4.53;;;4.22;;
75061;SDS011;63641;46.526;24.612;2023-08-21T14:49:34;5.97;;;4.47;;
75061;SDS011;63641;46.526;24.612;2023-08-21T14:52:01;7.05;;;5.72;;